sensor_id;sensor_type;location;lat;lon;timestamp;P1;durP1;ratioP1;P2;durP2;ratioP2
25758;SDS011;13604;52.496;13.456;2023-03-13T00:01:53;28.45;;;11.60;;
25758;SDS011;13604;52.496;13.456;2023-03-13T00:04:18;26.48;;;10.65;;
25758;SDS011;13604;52.496;13.456;2023-03-13T00:06:43;23.23;;;10.48;;
25758;SDS011;13604;52.496;13.456;2023-03-13T00:09:10;30.48;;;10.90;;
25758;SDS011;13604;52.496;13.456;2023-03-13T00:11:36;21.60;;;10.00;;
25758;SDS011;13604;52.496;13.456;2023-03-13T00:14:02;26.17;;;10.68;;
25758;SDS011;13604;52.496;13.456;2023-03-13T00:16:29;29.20;;;11.02;;
25758;SDS011;13604;52.496;13.456;2023-03-13T00:18:55;20.77;;;9.70;;
25758;SDS011;13604;52.496;13.456;2023-03-13T00:21:22;32.30;;;11.18;;
25758;SDS011;13604;52.496;13.456;2023-03-13T00:23:48;34.33;;;10.52;;
25758;SDS011;13604;52.496;13.456;2023-03-13T00:26:15;31.35;;;11.05;;
25758;SDS011;13604;52.496;13.456;2023-03-13T00:28:42;23.92;;;10.15;;
25758;SDS011;13604;52.496;13.456;2023-03-13T00:31:15;27.65;;;10.38;;
25758;SDS011;13604;52.496;13.456;2023-03-13T00:33:44;33.22;;;11.10;;
25758;SDS011;13604;52.496;13.456;2023-03-13T00:36:12;29.25;;;12.90;;
25758;SDS011;13604;52.496;13.456;2023-03-13T00:38:40;18.52;;;9.48;;
25758;SDS011;13604;52.496;13.456;2023-03-13T00:41:07;36.00;;;10.43;;
25758;SDS011;13604;52.496;13.456;2023-03-13T00:43:37;27.95;;;11.15;;
25758;SDS011;13604;52.496;13.456;2023-03-13T00:46:03;26.98;;;9.75;;
25758;SDS011;13604;52.496;13.456;2023-03-13T00:48:29;31.30;;;10.80;;
25758;SDS011;13604;52.496;13.456;2023-03-13T00:50:54;24.77;;;10.30;;
25758;SDS011;13604;52.496;13.456;2023-03-13T00:53:20;28.80;;;10.40;;
25758;SDS011;13604;52.496;13.456;2023-03-13T00:58:25;27.35;;;10.90;;
25758;SDS011;13604;52.496;13.456;2023-03-13T01:00:51;31.35;;;11.07;;
25758;SDS011;13604;52.496;13.456;2023-03-13T01:03:18;35.00;;;12.00;;
25758;SDS011;13604;52.496;13.456;2023-03-13T01:05:43;31.60;;;10.32;;
25758;SDS011;13604;52.496;13.456;2023-03-13T01:08:08;30.58;;;10.75;;
25758;SDS011;13604;52.496;13.456;2023-03-13T01:10:34;27.95;;;10.57;;
25758;SDS011;13604;52.496;13.456;2023-03-13T01:12:59;28.25;;;11.02;;
25758;SDS011;13604;52.496;13.456;2023-03-13T01:15:25;32.63;;;12.57;;
25758;SDS011;13604;52.496;13.456;2023-03-13T01:17:50;35.67;;;11.70;;
25758;SDS011;13604;52.496;13.456;2023-03-13T01:20:15;36.13;;;11.05;;
25758;SDS011;13604;52.496;13.456;2023-03-13T01:22:41;31.08;;;11.10;;
25758;SDS011;13604;52.496;13.456;2023-03-13T01:25:06;29.25;;;11.85;;
25758;SDS011;13604;52.496;13.456;2023-03-13T01:27:32;31.05;;;11.80;;
25758;SDS011;13604;52.496;13.456;2023-03-13T01:29:57;34.13;;;11.45;;
25758;SDS011;13604;52.496;13.456;2023-03-13T01:32:22;29.92;;;10.23;;
25758;SDS011;13604;52.496;13.456;2023-03-13T01:34:48;27.40;;;11.15;;
25758;SDS011;13604;52.496;13.456;2023-03-13T01:37:13;21.83;;;10.65;;
25758;SDS011;13604;52.496;13.456;2023-03-13T01:39:38;24.63;;;11.27;;
25758;SDS011;13604;52.496;13.456;2023-03-13T01:42:06;26.25;;;10.55;;
25758;SDS011;13604;52.496;13.456;2023-03-13T01:44:48;24.67;;;10.30;;
25758;SDS011;13604;52.496;13.456;2023-03-13T01:47:18;28.27;;;10.85;;
25758;SDS011;13604;52.496;13.456;2023-03-13T01:49:44;28.13;;;11.60;;
25758;SDS011;13604;52.496;13.456;2023-03-13T01:52:15;24.48;;;11.02;;
25758;SDS011;13604;52.496;13.456;2023-03-13T01:54:45;22.35;;;10.00;;
25758;SDS011;13604;52.496;13.456;2023-03-13T01:57:20;26.35;;;11.77;;
25758;SDS011;13604;52.496;13.456;2023-03-13T01:59:58;25.42;;;11.38;;
25758;SDS011;13604;52.496;13.456;2023-03-13T02:02:31;31.50;;;12.07;;
25758;SDS011;13604;52.496;13.456;2023-03-13T02:04:59;29.10;;;11.32;;
25758;SDS011;13604;52.496;13.456;2023-03-13T02:10:04;27.15;;;11.38;;
25758;SDS011;13604;52.496;13.456;2023-03-13T02:12:31;33.13;;;10.77;;
25758;SDS011;13604;52.496;13.456;2023-03-13T02:14:58;24.75;;;10.05;;
25758;SDS011;13604;52.496;13.456;2023-03-13T02:17:28;30.20;;;11.85;;
25758;SDS011;13604;52.496;13.456;2023-03-13T02:19:53;32.47;;;11.30;;
25758;SDS011;13604;52.496;13.456;2023-03-13T02:27:50;29.02;;;11.85;;
25758;SDS011;13604;52.496;13.456;2023-03-13T02:30:18;31.15;;;11.93;;
25758;SDS011;13604;52.496;13.456;2023-03-13T02:32:44;37.30;;;13.00;;
25758;SDS011;13604;52.496;13.456;2023-03-13T02:35:11;32.20;;;13.45;;
25758;SDS011;13604;52.496;13.456;2023-03-13T02:37:44;26.02;;;12.07;;
25758;SDS011;13604;52.496;13.456;2023-03-13T02:40:14;32.83;;;11.63;;
25758;SDS011;13604;52.496;13.456;2023-03-13T02:42:44;31.38;;;12.18;;
25758;SDS011;13604;52.496;13.456;2023-03-13T02:45:12;25.75;;;11.45;;
25758;SDS011;13604;52.496;13.456;2023-03-13T02:47:39;26.55;;;10.57;;
25758;SDS011;13604;52.496;13.456;2023-03-13T02:50:04;28.40;;;10.95;;
25758;SDS011;13604;52.496;13.456;2023-03-13T02:52:30;35.90;;;12.02;;
25758;SDS011;13604;52.496;13.456;2023-03-13T02:55:04;25.95;;;11.07;;
25758;SDS011;13604;52.496;13.456;2023-03-13T02:57:33;31.90;;;12.15;;
25758;SDS011;13604;52.496;13.456;2023-03-13T02:59:59;26.45;;;10.73;;
25758;SDS011;13604;52.496;13.456;2023-03-13T03:02:24;29.48;;;10.32;;
25758;SDS011;13604;52.496;13.456;2023-03-13T03:04:50;26.73;;;10.55;;
25758;SDS011;13604;52.496;13.456;2023-03-13T03:07:15;24.90;;;10.27;;
25758;SDS011;13604;52.496;13.456;2023-03-13T03:09:40;29.67;;;10.82;;
25758;SDS011;13604;52.496;13.456;2023-03-13T03:12:06;25.55;;;10.13;;
25758;SDS011;13604;52.496;13.456;2023-03-13T03:14:31;25.33;;;9.45;;
25758;SDS011;13604;52.496;13.456;2023-03-13T03:16:57;25.17;;;9.70;;
25758;SDS011;13604;52.496;13.456;2023-03-13T03:19:22;20.15;;;8.82;;
25758;SDS011;13604;52.496;13.456;2023-03-13T03:21:48;21.40;;;9.38;;
25758;SDS011;13604;52.496;13.456;2023-03-13T03:24:13;24.10;;;8.27;;
25758;SDS011;13604;52.496;13.456;2023-03-13T03:26:39;22.13;;;8.55;;
25758;SDS011;13604;52.496;13.456;2023-03-13T03:29:04;16.52;;;7.35;;
25758;SDS011;13604;52.496;13.456;2023-03-13T03:31:31;24.25;;;8.10;;
25758;SDS011;13604;52.496;13.456;2023-03-13T03:33:57;18.20;;;6.70;;
25758;SDS011;13604;52.496;13.456;2023-03-13T03:36:22;21.33;;;8.32;;
25758;SDS011;13604;52.496;13.456;2023-03-13T03:38:48;26.15;;;7.32;;
25758;SDS011;13604;52.496;13.456;2023-03-13T03:41:14;15.82;;;6.03;;
25758;SDS011;13604;52.496;13.456;2023-03-13T03:43:40;19.45;;;7.90;;
25758;SDS011;13604;52.496;13.456;2023-03-13T03:46:06;22.52;;;6.63;;
25758;SDS011;13604;52.496;13.456;2023-03-13T03:48:31;19.83;;;6.35;;
25758;SDS011;13604;52.496;13.456;2023-03-13T03:50:57;19.85;;;6.35;;
25758;SDS011;13604;52.496;13.456;2023-03-13T03:53:22;22.15;;;6.05;;
25758;SDS011;13604;52.496;13.456;2023-03-13T03:55:47;16.13;;;6.00;;
25758;SDS011;13604;52.496;13.456;2023-03-13T03:58:13;18.88;;;6.25;;
25758;SDS011;13604;52.496;13.456;2023-03-13T04:00:38;20.58;;;5.75;;
25758;SDS011;13604;52.496;13.456;2023-03-13T04:03:06;20.20;;;5.88;;
25758;SDS011;13604;52.496;13.456;2023-03-13T04:05:32;22.13;;;5.50;;
25758;SDS011;13604;52.496;13.456;2023-03-13T04:07:57;23.50;;;6.25;;
25758;SDS011;13604;52.496;13.456;2023-03-13T04:10:22;20.60;;;5.72;;
25758;SDS011;13604;52.496;13.456;2023-03-13T04:12:48;21.60;;;5.82;;
25758;SDS011;13604;52.496;13.456;2023-03-13T04:15:13;20.77;;;6.63;;
25758;SDS011;13604;52.496;13.456;2023-03-13T04:17:38;20.92;;;6.13;;
25758;SDS011;13604;52.496;13.456;2023-03-13T04:20:04;28.98;;;6.57;;
25758;SDS011;13604;52.496;13.456;2023-03-13T04:22:30;21.50;;;5.55;;
25758;SDS011;13604;52.496;13.456;2023-03-13T04:24:56;23.75;;;6.15;;
25758;SDS011;13604;52.496;13.456;2023-03-13T04:27:21;23.40;;;6.15;;
25758;SDS011;13604;52.496;13.456;2023-03-13T04:29:46;25.27;;;5.90;;
25758;SDS011;13604;52.496;13.456;2023-03-13T04:32:12;23.50;;;6.43;;
25758;SDS011;13604;52.496;13.456;2023-03-13T04:34:37;22.80;;;5.30;;
25758;SDS011;13604;52.496;13.456;2023-03-13T04:37:02;29.38;;;6.90;;
25758;SDS011;13604;52.496;13.456;2023-03-13T04:39:33;25.60;;;5.68;;
25758;SDS011;13604;52.496;13.456;2023-03-13T04:41:58;25.27;;;6.20;;
25758;SDS011;13604;52.496;13.456;2023-03-13T04:44:23;35.53;;;5.60;;
25758;SDS011;13604;52.496;13.456;2023-03-13T04:46:49;27.77;;;5.55;;
25758;SDS011;13604;52.496;13.456;2023-03-13T04:49:14;23.27;;;5.32;;
25758;SDS011;13604;52.496;13.456;2023-03-13T04:51:43;19.35;;;4.95;;
25758;SDS011;13604;52.496;13.456;2023-03-13T04:54:09;22.83;;;5.03;;
25758;SDS011;13604;52.496;13.456;2023-03-13T04:56:35;20.95;;;5.40;;
25758;SDS011;13604;52.496;13.456;2023-03-13T04:59:01;27.77;;;6.00;;
25758;SDS011;13604;52.496;13.456;2023-03-13T05:01:26;24.73;;;6.32;;
25758;SDS011;13604;52.496;13.456;2023-03-13T05:03:51;26.05;;;5.53;;
25758;SDS011;13604;52.496;13.456;2023-03-13T05:06:17;29.33;;;5.10;;
25758;SDS011;13604;52.496;13.456;2023-03-13T05:08:42;30.08;;;5.63;;
25758;SDS011;13604;52.496;13.456;2023-03-13T05:11:07;26.55;;;5.88;;
25758;SDS011;13604;52.496;13.456;2023-03-13T05:13:32;31.70;;;6.65;;
25758;SDS011;13604;52.496;13.456;2023-03-13T05:15:58;19.40;;;5.40;;
25758;SDS011;13604;52.496;13.456;2023-03-13T05:18:23;27.23;;;5.95;;
25758;SDS011;13604;52.496;13.456;2023-03-13T05:20:48;27.00;;;5.85;;
25758;SDS011;13604;52.496;13.456;2023-03-13T05:23:14;29.40;;;5.93;;
25758;SDS011;13604;52.496;13.456;2023-03-13T05:25:39;31.30;;;6.35;;
25758;SDS011;13604;52.496;13.456;2023-03-13T05:28:05;33.30;;;6.72;;
25758;SDS011;13604;52.496;13.456;2023-03-13T05:30:30;21.65;;;5.38;;
25758;SDS011;13604;52.496;13.456;2023-03-13T05:32:55;32.75;;;5.40;;
25758;SDS011;13604;52.496;13.456;2023-03-13T05:35:21;37.42;;;6.90;;
25758;SDS011;13604;52.496;13.456;2023-03-13T05:37:46;27.20;;;6.00;;
25758;SDS011;13604;52.496;13.456;2023-03-13T05:40:11;25.92;;;5.35;;
25758;SDS011;13604;52.496;13.456;2023-03-13T05:42:37;32.72;;;6.07;;
25758;SDS011;13604;52.496;13.456;2023-03-13T05:45:03;34.65;;;5.75;;
25758;SDS011;13604;52.496;13.456;2023-03-13T05:47:28;30.98;;;6.15;;
25758;SDS011;13604;52.496;13.456;2023-03-13T05:49:54;29.10;;;7.47;;
25758;SDS011;13604;52.496;13.456;2023-03-13T05:52:19;30.58;;;6.05;;
25758;SDS011;13604;52.496;13.456;2023-03-13T05:54:44;26.08;;;5.63;;
25758;SDS011;13604;52.496;13.456;2023-03-13T05:57:09;24.23;;;5.53;;
25758;SDS011;13604;52.496;13.456;2023-03-13T05:59:35;28.42;;;5.63;;
25758;SDS011;13604;52.496;13.456;2023-03-13T06:02:00;23.13;;;5.72;;
25758;SDS011;13604;52.496;13.456;2023-03-13T06:04:25;27.00;;;6.13;;
25758;SDS011;13604;52.496;13.456;2023-03-13T06:06:51;25.63;;;5.85;;
25758;SDS011;13604;52.496;13.456;2023-03-13T06:09:16;25.75;;;6.15;;
25758;SDS011;13604;52.496;13.456;2023-03-13T06:11:41;37.65;;;6.88;;
25758;SDS011;13604;52.496;13.456;2023-03-13T06:14:07;33.65;;;6.57;;
25758;SDS011;13604;52.496;13.456;2023-03-13T06:16:33;26.95;;;6.80;;
25758;SDS011;13604;52.496;13.456;2023-03-13T06:18:58;31.83;;;6.18;;
25758;SDS011;13604;52.496;13.456;2023-03-13T06:21:23;33.83;;;6.20;;
25758;SDS011;13604;52.496;13.456;2023-03-13T06:23:49;28.92;;;6.03;;
25758;SDS011;13604;52.496;13.456;2023-03-13T06:26:14;35.58;;;6.47;;
25758;SDS011;13604;52.496;13.456;2023-03-13T06:28:39;25.85;;;5.80;;
25758;SDS011;13604;52.496;13.456;2023-03-13T06:31:05;21.60;;;5.50;;
25758;SDS011;13604;52.496;13.456;2023-03-13T06:33:32;31.98;;;6.68;;
25758;SDS011;13604;52.496;13.456;2023-03-13T06:35:59;33.05;;;6.00;;
25758;SDS011;13604;52.496;13.456;2023-03-13T06:38:25;33.38;;;6.57;;
25758;SDS011;13604;52.496;13.456;2023-03-13T06:40:51;32.00;;;6.57;;
25758;SDS011;13604;52.496;13.456;2023-03-13T06:43:17;36.83;;;6.60;;
25758;SDS011;13604;52.496;13.456;2023-03-13T06:45:43;34.17;;;5.22;;
25758;SDS011;13604;52.496;13.456;2023-03-13T06:48:08;35.90;;;6.88;;
25758;SDS011;13604;52.496;13.456;2023-03-13T06:50:36;27.77;;;7.40;;
25758;SDS011;13604;52.496;13.456;2023-03-13T06:53:02;33.08;;;6.82;;
25758;SDS011;13604;52.496;13.456;2023-03-13T06:55:28;36.58;;;7.13;;
25758;SDS011;13604;52.496;13.456;2023-03-13T06:57:53;25.10;;;6.20;;
25758;SDS011;13604;52.496;13.456;2023-03-13T07:00:19;30.27;;;6.18;;
25758;SDS011;13604;52.496;13.456;2023-03-13T07:02:49;28.20;;;7.20;;
25758;SDS011;13604;52.496;13.456;2023-03-13T07:05:14;39.13;;;7.45;;
25758;SDS011;13604;52.496;13.456;2023-03-13T07:07:40;37.22;;;7.32;;
25758;SDS011;13604;52.496;13.456;2023-03-13T07:10:06;26.73;;;6.97;;
25758;SDS011;13604;52.496;13.456;2023-03-13T07:12:35;37.90;;;7.38;;
25758;SDS011;13604;52.496;13.456;2023-03-13T07:15:02;33.05;;;7.72;;
25758;SDS011;13604;52.496;13.456;2023-03-13T07:17:28;28.63;;;5.47;;
25758;SDS011;13604;52.496;13.456;2023-03-13T07:19:53;39.13;;;7.57;;
25758;SDS011;13604;52.496;13.456;2023-03-13T07:22:18;35.60;;;7.22;;
25758;SDS011;13604;52.496;13.456;2023-03-13T07:24:43;43.22;;;7.55;;
25758;SDS011;13604;52.496;13.456;2023-03-13T07:27:09;27.80;;;7.68;;
25758;SDS011;13604;52.496;13.456;2023-03-13T07:29:34;39.95;;;6.35;;
25758;SDS011;13604;52.496;13.456;2023-03-13T07:31:59;34.90;;;6.13;;
25758;SDS011;13604;52.496;13.456;2023-03-13T07:34:25;33.65;;;6.97;;
25758;SDS011;13604;52.496;13.456;2023-03-13T07:36:50;26.50;;;6.70;;
25758;SDS011;13604;52.496;13.456;2023-03-13T07:39:15;41.85;;;6.90;;
25758;SDS011;13604;52.496;13.456;2023-03-13T07:41:41;19.52;;;6.07;;
25758;SDS011;13604;52.496;13.456;2023-03-13T07:44:06;41.75;;;7.50;;
25758;SDS011;13604;52.496;13.456;2023-03-13T07:46:31;37.03;;;8.40;;
25758;SDS011;13604;52.496;13.456;2023-03-13T07:48:57;33.38;;;7.18;;
25758;SDS011;13604;52.496;13.456;2023-03-13T07:51:23;42.05;;;8.88;;
25758;SDS011;13604;52.496;13.456;2023-03-13T07:53:49;37.03;;;7.40;;
25758;SDS011;13604;52.496;13.456;2023-03-13T07:56:16;36.10;;;7.28;;
25758;SDS011;13604;52.496;13.456;2023-03-13T07:58:43;43.13;;;7.45;;
25758;SDS011;13604;52.496;13.456;2023-03-13T08:03:35;32.10;;;7.15;;
25758;SDS011;13604;52.496;13.456;2023-03-13T08:06:08;35.00;;;9.07;;
25758;SDS011;13604;52.496;13.456;2023-03-13T08:08:35;21.38;;;4.78;;
25758;SDS011;13604;52.496;13.456;2023-03-13T08:11:02;35.78;;;6.95;;
25758;SDS011;13604;52.496;13.456;2023-03-13T08:13:29;39.97;;;8.93;;
25758;SDS011;13604;52.496;13.456;2023-03-13T08:16:12;47.78;;;7.60;;
25758;SDS011;13604;52.496;13.456;2023-03-13T08:18:40;37.13;;;7.15;;
25758;SDS011;13604;52.496;13.456;2023-03-13T08:21:10;44.47;;;8.00;;
25758;SDS011;13604;52.496;13.456;2023-03-13T08:23:37;40.88;;;7.80;;
25758;SDS011;13604;52.496;13.456;2023-03-13T08:26:04;38.10;;;7.47;;
25758;SDS011;13604;52.496;13.456;2023-03-13T08:28:29;36.83;;;7.90;;
25758;SDS011;13604;52.496;13.456;2023-03-13T08:30:54;34.13;;;7.10;;
25758;SDS011;13604;52.496;13.456;2023-03-13T08:33:20;34.45;;;7.60;;
25758;SDS011;13604;52.496;13.456;2023-03-13T08:35:45;27.98;;;6.65;;
25758;SDS011;13604;52.496;13.456;2023-03-13T08:38:10;38.00;;;6.90;;
25758;SDS011;13604;52.496;13.456;2023-03-13T08:40:36;37.05;;;8.52;;
25758;SDS011;13604;52.496;13.456;2023-03-13T08:43:02;27.27;;;6.78;;
25758;SDS011;13604;52.496;13.456;2023-03-13T08:45:27;32.38;;;7.15;;
25758;SDS011;13604;52.496;13.456;2023-03-13T08:47:52;32.38;;;7.20;;
25758;SDS011;13604;52.496;13.456;2023-03-13T08:50:18;31.65;;;7.28;;
25758;SDS011;13604;52.496;13.456;2023-03-13T08:52:43;27.52;;;6.53;;
25758;SDS011;13604;52.496;13.456;2023-03-13T08:55:09;37.95;;;7.28;;
25758;SDS011;13604;52.496;13.456;2023-03-13T08:57:35;33.95;;;6.93;;
25758;SDS011;13604;52.496;13.456;2023-03-13T09:00:00;29.23;;;7.68;;
25758;SDS011;13604;52.496;13.456;2023-03-13T09:02:26;27.90;;;6.65;;
25758;SDS011;13604;52.496;13.456;2023-03-13T09:04:51;25.23;;;7.68;;
25758;SDS011;13604;52.496;13.456;2023-03-13T09:07:16;33.88;;;7.47;;
25758;SDS011;13604;52.496;13.456;2023-03-13T09:09:41;25.38;;;6.10;;
25758;SDS011;13604;52.496;13.456;2023-03-13T09:12:07;26.85;;;6.15;;
25758;SDS011;13604;52.496;13.456;2023-03-13T09:14:33;30.00;;;6.80;;
25758;SDS011;13604;52.496;13.456;2023-03-13T09:16:58;29.73;;;5.53;;
25758;SDS011;13604;52.496;13.456;2023-03-13T09:19:23;22.67;;;5.82;;
25758;SDS011;13604;52.496;13.456;2023-03-13T09:21:48;33.75;;;6.70;;
25758;SDS011;13604;52.496;13.456;2023-03-13T09:24:14;24.73;;;6.47;;
25758;SDS011;13604;52.496;13.456;2023-03-13T09:26:39;31.40;;;7.00;;
25758;SDS011;13604;52.496;13.456;2023-03-13T09:29:05;22.75;;;6.55;;
25758;SDS011;13604;52.496;13.456;2023-03-13T09:31:31;21.83;;;5.30;;
25758;SDS011;13604;52.496;13.456;2023-03-13T09:33:57;21.25;;;5.45;;
25758;SDS011;13604;52.496;13.456;2023-03-13T09:36:23;21.13;;;5.85;;
25758;SDS011;13604;52.496;13.456;2023-03-13T09:38:50;29.23;;;6.05;;
25758;SDS011;13604;52.496;13.456;2023-03-13T09:49:34;24.40;;;6.00;;
25758;SDS011;13604;52.496;13.456;2023-03-13T09:52:12;20.00;;;5.38;;
25758;SDS011;13604;52.496;13.456;2023-03-13T09:55:01;23.90;;;5.53;;
25758;SDS011;13604;52.496;13.456;2023-03-13T09:57:35;30.20;;;6.18;;
25758;SDS011;13604;52.496;13.456;2023-03-13T10:00:11;30.45;;;5.75;;
25758;SDS011;13604;52.496;13.456;2023-03-13T10:02:43;19.40;;;4.93;;
25758;SDS011;13604;52.496;13.456;2023-03-13T10:05:20;21.45;;;5.57;;
25758;SDS011;13604;52.496;13.456;2023-03-13T10:07:48;17.02;;;5.13;;
25758;SDS011;13604;52.496;13.456;2023-03-13T10:10:18;19.10;;;4.35;;
25758;SDS011;13604;52.496;13.456;2023-03-13T10:12:50;23.65;;;5.20;;
25758;SDS011;13604;52.496;13.456;2023-03-13T10:18:09;12.65;;;4.18;;
25758;SDS011;13604;52.496;13.456;2023-03-13T10:20:45;17.55;;;4.40;;
25758;SDS011;13604;52.496;13.456;2023-03-13T10:23:34;16.23;;;4.25;;
25758;SDS011;13604;52.496;13.456;2023-03-13T10:26:03;19.98;;;4.50;;
25758;SDS011;13604;52.496;13.456;2023-03-13T10:28:29;13.35;;;4.55;;
25758;SDS011;13604;52.496;13.456;2023-03-13T10:31:13;15.00;;;4.75;;
25758;SDS011;13604;52.496;13.456;2023-03-13T10:33:47;13.18;;;4.55;;
25758;SDS011;13604;52.496;13.456;2023-03-13T10:36:13;12.85;;;4.38;;
25758;SDS011;13604;52.496;13.456;2023-03-13T10:38:46;15.02;;;4.72;;
25758;SDS011;13604;52.496;13.456;2023-03-13T10:43:59;11.25;;;3.63;;
25758;SDS011;13604;52.496;13.456;2023-03-13T10:46:29;14.60;;;4.20;;
25758;SDS011;13604;52.496;13.456;2023-03-13T10:49:03;14.02;;;3.70;;
25758;SDS011;13604;52.496;13.456;2023-03-13T10:51:38;9.48;;;2.90;;
25758;SDS011;13604;52.496;13.456;2023-03-13T10:54:24;11.18;;;3.92;;
25758;SDS011;13604;52.496;13.456;2023-03-13T10:57:06;11.80;;;3.22;;
25758;SDS011;13604;52.496;13.456;2023-03-13T10:59:38;10.07;;;3.10;;
25758;SDS011;13604;52.496;13.456;2023-03-13T11:02:16;8.27;;;2.97;;
25758;SDS011;13604;52.496;13.456;2023-03-13T11:04:46;9.90;;;3.05;;
25758;SDS011;13604;52.496;13.456;2023-03-13T11:09:57;9.15;;;2.63;;
25758;SDS011;13604;52.496;13.456;2023-03-13T11:12:24;8.13;;;2.08;;
25758;SDS011;13604;52.496;13.456;2023-03-13T11:14:57;9.27;;;2.58;;
25758;SDS011;13604;52.496;13.456;2023-03-13T11:25:19;6.28;;;2.28;;
25758;SDS011;13604;52.496;13.456;2023-03-13T11:30:48;5.32;;;2.03;;
25758;SDS011;13604;52.496;13.456;2023-03-13T11:36:09;6.15;;;1.75;;
25758;SDS011;13604;52.496;13.456;2023-03-13T11:38:47;3.80;;;1.80;;
25758;SDS011;13604;52.496;13.456;2023-03-13T11:41:39;2.47;;;1.40;;
25758;SDS011;13604;52.496;13.456;2023-03-13T11:44:16;5.47;;;2.03;;
25758;SDS011;13604;52.496;13.456;2023-03-13T11:47:04;3.40;;;1.50;;
25758;SDS011;13604;52.496;13.456;2023-03-13T11:49:44;6.45;;;1.58;;
25758;SDS011;13604;52.496;13.456;2023-03-13T11:52:29;4.72;;;2.05;;
25758;SDS011;13604;52.496;13.456;2023-03-13T11:58:11;3.63;;;1.60;;
25758;SDS011;13604;52.496;13.456;2023-03-13T12:00:45;3.80;;;1.50;;
25758;SDS011;13604;52.496;13.456;2023-03-13T12:03:15;2.45;;;1.63;;
25758;SDS011;13604;52.496;13.456;2023-03-13T12:05:50;3.00;;;1.50;;
25758;SDS011;13604;52.496;13.456;2023-03-13T12:08:19;6.80;;;1.50;;
25758;SDS011;13604;52.496;13.456;2023-03-13T12:10:54;2.65;;;1.23;;
25758;SDS011;13604;52.496;13.456;2023-03-13T12:13:29;5.00;;;1.70;;
25758;SDS011;13604;52.496;13.456;2023-03-13T12:15:59;2.85;;;1.65;;
25758;SDS011;13604;52.496;13.456;2023-03-13T12:18:31;3.00;;;1.20;;
25758;SDS011;13604;52.496;13.456;2023-03-13T12:21:03;3.28;;;1.50;;
25758;SDS011;13604;52.496;13.456;2023-03-13T12:26:41;2.53;;;1.27;;
25758;SDS011;13604;52.496;13.456;2023-03-13T12:30:00;2.92;;;1.10;;
25758;SDS011;13604;52.496;13.456;2023-03-13T12:35:07;3.85;;;1.60;;
25758;SDS011;13604;52.496;13.456;2023-03-13T12:37:45;2.80;;;1.20;;
25758;SDS011;13604;52.496;13.456;2023-03-13T12:40:26;1.13;;;0.90;;
25758;SDS011;13604;52.496;13.456;2023-03-13T12:48:47;4.78;;;1.42;;
25758;SDS011;13604;52.496;13.456;2023-03-13T12:57:03;1.95;;;1.00;;
25758;SDS011;13604;52.496;13.456;2023-03-13T12:59:39;1.52;;;0.90;;
25758;SDS011;13604;52.496;13.456;2023-03-13T13:02:18;2.63;;;0.90;;
25758;SDS011;13604;52.496;13.456;2023-03-13T13:04:46;2.50;;;1.00;;
25758;SDS011;13604;52.496;13.456;2023-03-13T13:07:24;1.48;;;0.80;;
25758;SDS011;13604;52.496;13.456;2023-03-13T13:12:34;1.37;;;0.90;;
25758;SDS011;13604;52.496;13.456;2023-03-13T13:15:10;1.25;;;0.80;;
25758;SDS011;13604;52.496;13.456;2023-03-13T13:17:46;1.27;;;1.15;;
25758;SDS011;13604;52.496;13.456;2023-03-13T13:22:50;2.70;;;1.20;;
25758;SDS011;13604;52.496;13.456;2023-03-13T13:32:42;5.20;;;1.17;;
25758;SDS011;13604;52.496;13.456;2023-03-13T13:37:37;3.50;;;1.33;;
25758;SDS011;13604;52.496;13.456;2023-03-13T13:42:56;3.58;;;1.10;;
25758;SDS011;13604;52.496;13.456;2023-03-13T13:45:24;2.97;;;1.02;;
25758;SDS011;13604;52.496;13.456;2023-03-13T13:50:56;1.30;;;1.00;;
25758;SDS011;13604;52.496;13.456;2023-03-13T13:53:55;3.35;;;1.55;;
25758;SDS011;13604;52.496;13.456;2023-03-13T13:58:56;4.60;;;1.33;;
25758;SDS011;13604;52.496;13.456;2023-03-13T14:01:25;1.80;;;1.10;;
25758;SDS011;13604;52.496;13.456;2023-03-13T14:03:52;2.90;;;1.20;;
25758;SDS011;13604;52.496;13.456;2023-03-13T14:06:24;1.52;;;1.25;;
25758;SDS011;13604;52.496;13.456;2023-03-13T14:08:55;4.40;;;1.30;;
25758;SDS011;13604;52.496;13.456;2023-03-13T14:11:27;4.25;;;1.58;;
25758;SDS011;13604;52.496;13.456;2023-03-13T14:14:40;2.28;;;1.17;;
25758;SDS011;13604;52.496;13.456;2023-03-13T14:16:50;1.92;;;1.20;;
25758;SDS011;13604;52.496;13.456;2023-03-13T14:21:55;2.88;;;1.90;;
25758;SDS011;13604;52.496;13.456;2023-03-13T14:24:22;4.07;;;1.20;;
25758;SDS011;13604;52.496;13.456;2023-03-13T14:26:47;3.70;;;1.13;;
25758;SDS011;13604;52.496;13.456;2023-03-13T14:29:17;2.53;;;1.30;;
25758;SDS011;13604;52.496;13.456;2023-03-13T14:31:50;3.33;;;1.40;;
25758;SDS011;13604;52.496;13.456;2023-03-13T14:34:20;2.80;;;1.20;;
25758;SDS011;13604;52.496;13.456;2023-03-13T14:36:53;2.60;;;1.55;;
25758;SDS011;13604;52.496;13.456;2023-03-13T14:41:55;2.40;;;1.30;;
25758;SDS011;13604;52.496;13.456;2023-03-13T14:44:27;2.28;;;1.30;;
25758;SDS011;13604;52.496;13.456;2023-03-13T14:46:55;5.18;;;1.50;;
25758;SDS011;13604;52.496;13.456;2023-03-13T14:49:23;2.20;;;1.40;;
25758;SDS011;13604;52.496;13.456;2023-03-13T14:52:00;4.18;;;1.35;;
25758;SDS011;13604;52.496;13.456;2023-03-13T14:54:32;3.05;;;1.42;;
25758;SDS011;13604;52.496;13.456;2023-03-13T14:59:29;2.95;;;1.35;;
25758;SDS011;13604;52.496;13.456;2023-03-13T15:02:01;3.72;;;1.40;;
25758;SDS011;13604;52.496;13.456;2023-03-13T15:04:56;4.75;;;1.65;;
25758;SDS011;13604;52.496;13.456;2023-03-13T15:07:47;1.40;;;1.25;;
25758;SDS011;13604;52.496;13.456;2023-03-13T15:10:22;4.50;;;1.20;;
25758;SDS011;13604;52.496;13.456;2023-03-13T15:12:49;1.98;;;1.23;;
25758;SDS011;13604;52.496;13.456;2023-03-13T15:15:14;1.88;;;1.30;;
25758;SDS011;13604;52.496;13.456;2023-03-13T15:17:40;3.00;;;1.63;;
25758;SDS011;13604;52.496;13.456;2023-03-13T15:20:05;3.88;;;1.40;;
25758;SDS011;13604;52.496;13.456;2023-03-13T15:22:32;1.88;;;1.30;;
25758;SDS011;13604;52.496;13.456;2023-03-13T15:25:03;2.25;;;1.52;;
25758;SDS011;13604;52.496;13.456;2023-03-13T15:27:38;2.17;;;1.20;;
25758;SDS011;13604;52.496;13.456;2023-03-13T15:30:03;3.03;;;1.20;;
25758;SDS011;13604;52.496;13.456;2023-03-13T15:32:30;3.40;;;1.70;;
25758;SDS011;13604;52.496;13.456;2023-03-13T15:34:58;1.58;;;1.30;;
25758;SDS011;13604;52.496;13.456;2023-03-13T15:37:25;3.90;;;1.40;;
25758;SDS011;13604;52.496;13.456;2023-03-13T15:39:52;3.28;;;1.45;;
25758;SDS011;13604;52.496;13.456;2023-03-13T15:42:17;4.15;;;1.52;;
25758;SDS011;13604;52.496;13.456;2023-03-13T15:44:43;3.85;;;1.80;;
25758;SDS011;13604;52.496;13.456;2023-03-13T15:47:09;4.15;;;1.55;;
25758;SDS011;13604;52.496;13.456;2023-03-13T15:52:12;3.15;;;1.35;;
25758;SDS011;13604;52.496;13.456;2023-03-13T15:54:41;3.95;;;1.45;;
25758;SDS011;13604;52.496;13.456;2023-03-13T15:57:07;3.33;;;1.70;;
25758;SDS011;13604;52.496;13.456;2023-03-13T15:59:35;3.08;;;1.45;;
25758;SDS011;13604;52.496;13.456;2023-03-13T16:02:00;4.18;;;1.83;;
25758;SDS011;13604;52.496;13.456;2023-03-13T16:04:26;3.88;;;1.70;;
25758;SDS011;13604;52.496;13.456;2023-03-13T16:06:51;7.95;;;1.75;;
25758;SDS011;13604;52.496;13.456;2023-03-13T16:09:16;2.33;;;1.67;;